VATSIM Germany Forum

Zurück   VATSIM Germany Forum > Community > Events

Events Ankündigungen von Events, Checkouts, TV-Terminen, usw.

Antwort
 
LinkBack Themen-Optionen Ansicht
Alt 2018-08-22, 09:36   #461 (permalink)
 
Benutzerbild von Steffen Butenschön
 
Registriert seit: 2013-01-03
Ort: bei Berlin
Beiträge: 173
Danke erteilt: 415
457 Danksagungen in 130 Beiträgen erhalten
Standard

SERVUS !

In gut 10 Stunden geht es wieder rund in und um Minga !
Bis jetzt sind 7 ATC Stationen gebucht und wir freuen
uns Euch wider gut gelaunten und professionellen Service
anbieten zu können.
Ebenso gut gelaunt zeigt sich das Wetter:

2018/08/22 07:20
EDDM 220720Z 13003KT 060V180 CAVOK 22/16 Q1019 NOSIG

2018/08/22 06:27
TAF EDDM 220500Z 2206/2312 VRB03KT CAVOK
BECMG 2207/2209 08005KT
BECMG 2306/2308 23005KT

Also, nutzt die Gelegenheit und seid dabei !
Den Grill könnt Ihr dann bei den Temperaturen auch nach der
Landung noch anwerfen.

Bis später!

Eure München Crew

Geändert von Steffen Butenschön (2018-11-14 um 09:49 Uhr)
Steffen Butenschön ist gerade online   Mit Zitat antworten
Alt 2018-08-29, 15:01   #462 (permalink)
 
Benutzerbild von Steffen Butenschön
 
Registriert seit: 2013-01-03
Ort: bei Berlin
Beiträge: 173
Danke erteilt: 415
457 Danksagungen in 130 Beiträgen erhalten
Standard


Herzlich willkommen zurück nach der Werbepause!
Die Finale Frage der August Staffel von "Wer wird Flusionär?"
Dem Gewinner winken 2.000.000 virtuelle Bonusmeilen , zum Mitfliegen auf dem Twitch Channel seiner Wahl!

"Herr/Frau Sima , Ihr Partner oder Haustier fragt : Warum hast Du Mittwochs immer keine Zeit für mich ?"

A: Watt, wer bist Du denn? B: RAUS hier, das ist ein Cockpit!

C: Ich bin Controller, ich darf das! D: Juhu, endlich wieder Mittwoch!

In der Tat ist hier die Kombination mehrerer Antworten möglich und richtig Den Rest der Woche sind ja alle
wieder mit vollster Aufmerksamkeit daheim!

So lassen wir in wenigen Stunden die Spiele beginnen!
Schaut auf die Buchungen:
Schaut aus dem Fenster:

2018/08/29 12:50
EDDM 291250Z VRB04KT CAVOK 26/15 Q1015 NOSIG

Schaut in die Glaskugel:

2018/08/29 12:27
TAF EDDM 291100Z 2912/3018 VRB03KT CAVOK
BECMG 2916/2918 23005KT
TEMPO 2918/2924 29020G35KT 4000 TSRA BKN035CB
TEMPO 3000/3010 4000 RA BKN008 PROB30
TEMPO 3000/3003 TSRA BKN020CB
BECMG 3006/3008 32006KT

Das kann doch ganz spaßig werden - Fasten your seatbelts and check the go around procedure!

Bis gleich!

Eure München Crew
Steffen Butenschön ist gerade online   Mit Zitat antworten
Alt 2018-09-05, 08:43   #463 (permalink)
 
Benutzerbild von Steffen Butenschön
 
Registriert seit: 2013-01-03
Ort: bei Berlin
Beiträge: 173
Danke erteilt: 415
457 Danksagungen in 130 Beiträgen erhalten
Standard

Münchens Mittwoch

Die Stationen sind natürlich bereits gebucht und so kann es in gut 10 Stunden losgehen!
Das Wetter präsentiert sich eher unspektakulär:

2018/09/05 06:20
EDDM 050620Z VRB01KT 9999 MIFG NSC 13/13 Q1018 NOSIG

2018/09/05 06:27
TAF EDDM 050500Z 0506/0612 06003KT 3500 BCFG NSC
BECMG 0506/0508 6000 PROB40
TEMPO 0602/0608 1200 BCFG BKN001

Und so werden wir für die ein oder andere Überraschung sorgen - expect the unexpectet!
Selbstverständlich versuchen wir auch gerne besondere Pilotenwünsche umzusetzen.

Nach aktuellem Buchungsstand ergeben sich Strecken von/ nach: LOWW-LKPR-EPGD-EKCH-EGCC

Aber warum in die Ferne schweifen, wenn das Gute liegt so nah?
Wie immer sind Platzrunden auch eine gute Möglichkeit für ein wenig Airwork.

Bis später!

Eure München Crew
Steffen Butenschön ist gerade online   Mit Zitat antworten
Alt 2018-09-12, 08:04   #464 (permalink)
 
Benutzerbild von Steffen Butenschön
 
Registriert seit: 2013-01-03
Ort: bei Berlin
Beiträge: 173
Danke erteilt: 415
457 Danksagungen in 130 Beiträgen erhalten
Standard

Mittwochs in München!

Das Team der DFFS steht in den Startlöchern!
Ein bisschen Nebel löst sich gleich noch auf und dann gibt es wieder einen freien Blick auf die Alpen:

2018/09/12 05:20
EDDM 120520Z 28001KT 9999 MIFG NSC 11/10 Q1023 NOSIG

2018/09/12 06:27
TAF EDDM 120500Z 1206/1312 VRB03KT CAVOK
BECMG 1208/1210 26005KT
BECMG 1216/1218 VRB03KT

Der Après Fly Tip führt heute alle Piloten, die morgen frei haben, in die Bar 089.
Von 21 Uhr bis Mitternacht könnt Ihr beim Absolut Musik Bingo Euer Musikwissen testen und gewinnen.
Das Motto :"Lässiger Mittwoch" ;bis 24Uhr kein Eintritt, nur lässig!
Ab 0 Uhr Schnaps, Zappeln & Liebe

So machen wir das heute auch - also kein Eintritt und lässig

Bis später!

Eure München Crew
Steffen Butenschön ist gerade online   Mit Zitat antworten
Alt 2018-09-19, 08:46   #465 (permalink)
 
Benutzerbild von Steffen Butenschön
 
Registriert seit: 2013-01-03
Ort: bei Berlin
Beiträge: 173
Danke erteilt: 415
457 Danksagungen in 130 Beiträgen erhalten
Standard

München am Mittwoch

Wir präsentieren heute wieder ein buntes Potpourri aus der Münchner Controller Szene.
Vom Training mit Mentor über finale Vorbereitung auf den CPT bis hin zum alten Hasen erfahrenen Profi sind wieder alle mit am Start
- am München Mittwoch!

Von Euch und folgendem Wetter werden Sie begleitet:

2018/09/19 06:20
EDDM 190620Z 26003KT 230V300 9999 FEW070TCU SCT100 15/14 Q1022 NOSIG

2018/09/19 06:27
TAF EDDM 190500Z 1906/2012 23005KT CAVOK PROB30
TEMPO 1906/1910 SHRA SCT040CB
BECMG 1916/1918 VRB03KT
BECMG 2002/2004 2000 BCFG PROB30
TEMPO 2004/2007 0500 FG VV001
BECMG 2007/2009 9999

Wer schon vor Ort ist geht z.B. heute mal auf die Messe:
Ein echtes Paradies für Schlemmerprofis: Die Fachmesse iba, die vom 15. bis 20.9.2018 in der Messe München stattfindet, ist die führende
Weltmesse für Bäckerei, Konditorei und Snacks. Über 1.300 Aussteller präsentieren hier die neuesten Innovationen, Trends und technischen
Weiterentwicklungen aus der Branche.Superbrot, Insekten als neue Zutat auf dem Speiseplan, Backwaren per Drohne und „customized bread“.

Das mit den Drohnen lassen wir mal - wir fliegen doch lieber selbst

Bis später!

Eure München Crew
Steffen Butenschön ist gerade online   Mit Zitat antworten
Alt 2018-10-03, 09:03   #466 (permalink)
 
Benutzerbild von Steffen Butenschön
 
Registriert seit: 2013-01-03
Ort: bei Berlin
Beiträge: 173
Danke erteilt: 415
457 Danksagungen in 130 Beiträgen erhalten
Standard

München Mittwoch!

Richtig, heute sehen wir uns wieder in der Oktoberfestmetropole München!
Alle ansässigen Controller werden selbstverständlich heute etwas kürzer treten und in wenigen
Stunden fit und munter auf den Frequenzen für Euch da sein.
Der Wind fegt dann gleich noch einmal alles schön sauber:

2018/10/03 06:20
EDDM 030620Z 26013KT 9999 FEW025 11/06 Q1023 NOSIG

2018/10/03 06:31
TAF EDDM 030500Z 0306/0412 26012KT 9999 FEW020 BKN030
TEMPO 0310/0314 28015G25KT
BECMG 0315/0317 26007KT
BECMG 0320/0322 VRB03KT
TEMPO 0402/0407 1200 BCFG
BECMG 0407/0409 07005KT

In 4 Tagen und 14 Stunden ist dann die 185. Wiesn auch schon wieder vorbei. Also bleibt doch heute
nach der Landung noch ein paar Tage hier!

Bis später!

Eure München Crew
Steffen Butenschön ist gerade online   Mit Zitat antworten
Alt 2018-10-10, 13:19   #467 (permalink)
 
Benutzerbild von Steffen Butenschön
 
Registriert seit: 2013-01-03
Ort: bei Berlin
Beiträge: 173
Danke erteilt: 415
457 Danksagungen in 130 Beiträgen erhalten
Standard

Ja is denn heut schon Mittwoch?

Tatsächlich ist es wieder so weit und so geht es heute rund in Bayern
Der Oktober verwöhnt uns weiterhin mit schönem Wetter:

2018/10/10 10:50
EDDM 101050Z VRB04KT 9999 FEW010 15/11 Q1020 NOSIG

2018/10/10 06:29
TAF EDDM 100500Z 1006/1112 07004KT 0400 FG OVC002
BECMG 1006/1008 1200 BR
BECMG 1008/1010 09009KT 3000 BR BKN005
BECMG 1010/1012 CAVOK
BECMG 1016/1018 07004KT PROB30
TEMPO 1021/1107 3000 BCFG

Moritz trainiert auf den Vorfeldern und Michael hat quasi seine Generalprobe vor dem
CPT in der kommenden Woche. Also lasst den Luftraum wieder richtig voll werden
und fordert uns!

Bis später!

Eure München Crew
Steffen Butenschön ist gerade online   Mit Zitat antworten
Alt 2018-10-17, 13:28   #468 (permalink)
 
Benutzerbild von Steffen Butenschön
 
Registriert seit: 2013-01-03
Ort: bei Berlin
Beiträge: 173
Danke erteilt: 415
457 Danksagungen in 130 Beiträgen erhalten
Standard

Michael in München!

Keine Angst, wir sprechen jetzt nicht vom Hurrikan Michael.
Das Wetter zeigt sich heute wieder von seiner schönen Seite:

2018/10/17 10:50
EDDM 171050Z VRB02KT CAVOK 18/09 Q1019 NOSIG

2018/10/17 06:27
TAF EDDM 170500Z 1706/1812 VRB02KT CAVOK
TEMPO 1710/1716 05005KT
TEMPO 1723/1808 2500 BCFG
BECMG 1809/1811 04005KT

Wir sprechen von Michael Hoffmann, der heute sein Approach CPT absolviert!
Zur Unterstützung sind wir Kollegen natürlich in den Startlöchern und freuen uns
auf viele Piloten für den heutigen München Mittwoch!
Während Michael also tagsüber noch ein ein bisschen Phraseologie rezitiert, bereitet
Ihr bitte alle Flieger vor!
Wie immer freuen wir uns über IFR und VFR Verkehr.

Bis später!

Eure München Crew
Steffen Butenschön ist gerade online   Mit Zitat antworten
Alt 2018-10-24, 14:44   #469 (permalink)
 
Benutzerbild von Steffen Butenschön
 
Registriert seit: 2013-01-03
Ort: bei Berlin
Beiträge: 173
Danke erteilt: 415
457 Danksagungen in 130 Beiträgen erhalten
Standard

Mittwochs in München !

Heute spielt der FC Bayern gegen Frankfurt -
zum Glück aber die Damen und schon um 18:15 im FC Bayern Campus
So können wir uns spätestens nach dem Spiel voll und ganz der Fliegerei widmen.

Momentan liegen wir zwischen hohem Luftdruck über dem Atlantik und einem Tief über Russland.
Es schiebt sich wolkenreiche Luft in den größten Teil Deutschlands. Auf den Gipfeln der Alpen gibt
es Sturmböen und auf besonders exponierten Exemplaren sogar orkanartige Böen / 11Bft . Sonne
gibt es in München dann morgen wieder :

2018/10/24 11:50
EDDM 241150Z 27014KT 9999 -DZ FEW012 BKN015 11/09 Q1020 NOSIG

2018/10/24 12:27
TAF EDDM 241100Z 2412/2518 26015G30KT 9000 SCT012 BKN020
TEMPO 2412/2506 2500 DZRA BKN012
BECMG 2417/2419 26012KT PROB30
TEMPO 2418/2506 BKN008
TEMPO 2506/2509 BKN012 PROB30
TEMPO 2510/2514 27015G25KT

Also bitte auf den Vorfeldern alles schön festhalten!

Bis später!

Eure München Crew
Steffen Butenschön ist gerade online   Mit Zitat antworten
Danksagungen
Alt 2018-10-31, 15:47   #470 (permalink)
 
Benutzerbild von Steffen Butenschön
 
Registriert seit: 2013-01-03
Ort: bei Berlin
Beiträge: 173
Danke erteilt: 415
457 Danksagungen in 130 Beiträgen erhalten
Standard

Happy Halloween

Von 14 bis 17 Uhr feiern die Kleinen heute Halloween im Kinderland am Flughafen München.
Geboten wird coole Musik, tolle Spiele und leckere Grusel – Verpflegung. Der Spaß kostet
Mama und Papa nur 20 Euro.
Ab 1930 steigt dann die Halloween Party der DFFS-die Teilnahme ist kostenlos!
Mama schminkt die Kids ab und Papa steigt in den Flieger.

Das Wetter ist absolut nicht gruselig:

2018/10/31 14:20
EDDM 311420Z 09005KT CAVOK 11/05 Q1016 NOSIG

2018/10/31 12:27
TAF EDDM 311100Z 3112/0118 07006KT CAVOK
BECMG 0114/0116 28005KT

Bis gleich!

Eure München Crew
Steffen Butenschön ist gerade online   Mit Zitat antworten
Antwort

  VATSIM Germany Forum > Community > Events


Themen-Optionen
Ansicht

Forumregeln
Es ist dir nicht erlaubt, neue Themen zu verfassen.
Es ist dir nicht erlaubt, auf Beiträge zu antworten.
Es ist dir nicht erlaubt, Anhänge hochzuladen.
Es ist dir nicht erlaubt, deine Beiträge zu bearbeiten.

BB-Code ist an.
Smileys sind an.
[IMG] Code ist an.
HTML-Code ist aus.
Trackbacks are an
Pingbacks are an
Refbacks are an



Alle Zeitangaben in WEZ +2. Es ist jetzt 14:05 Uhr.


Powered by vBulletin® Version 3.8.4 (Deutsch)
Copyright ©2000 - 2019, Jelsoft Enterprises Ltd.
Template-Modifikationen durch TMS
© 2006 - 2018 vatsim-germany.org